sensor_id;sensor_type;location;lat;lon;timestamp;temperature;humidity
11132;DHT22;5620;53.570;9.718;2023-11-18T00:01:31;6.90;1.00
11132;DHT22;5620;53.570;9.718;2023-11-18T00:03:58;6.90;1.00
11132;DHT22;5620;53.570;9.718;2023-11-18T00:06:25;7.00;1.00
11132;DHT22;5620;53.570;9.718;2023-11-18T00:08:50;6.90;1.00
11132;DHT22;5620;53.570;9.718;2023-11-18T00:11:17;7.00;1.00
11132;DHT22;5620;53.570;9.718;2023-11-18T00:13:44;6.90;1.00
11132;DHT22;5620;53.570;9.718;2023-11-18T00:16:11;6.80;1.00
11132;DHT22;5620;53.570;9.718;2023-11-18T00:18:39;6.70;1.00
11132;DHT22;5620;53.570;9.718;2023-11-18T00:21:06;6.60;1.00
11132;DHT22;5620;53.570;9.718;2023-11-18T00:23:35;6.60;1.00
11132;DHT22;5620;53.570;9.718;2023-11-18T00:26:02;6.60;1.00
11132;DHT22;5620;53.570;9.718;2023-11-18T00:28:28;6.60;1.00
11132;DHT22;5620;53.570;9.718;2023-11-18T00:30:55;6.60;1.00
11132;DHT22;5620;53.570;9.718;2023-11-18T00:33:22;6.60;1.00
11132;DHT22;5620;53.570;9.718;2023-11-18T00:35:49;6.70;1.00
11132;DHT22;5620;53.570;9.718;2023-11-18T00:38:15;6.70;1.00
11132;DHT22;5620;53.570;9.718;2023-11-18T00:40:42;6.80;1.00
11132;DHT22;5620;53.570;9.718;2023-11-18T00:43:10;6.80;1.00
11132;DHT22;5620;53.570;9.718;2023-11-18T00:45:37;6.90;1.00
11132;DHT22;5620;53.570;9.718;2023-11-18T00:48:04;6.90;1.00
11132;DHT22;5620;53.570;9.718;2023-11-18T00:50:31;6.90;1.00
11132;DHT22;5620;53.570;9.718;2023-11-18T00:52:58;7.00;1.00
11132;DHT22;5620;53.570;9.718;2023-11-18T00:55:23;7.00;1.00
11132;DHT22;5620;53.570;9.718;2023-11-18T00:57:50;6.90;1.00
11132;DHT22;5620;53.570;9.718;2023-11-18T01:00:16;6.80;1.00
11132;DHT22;5620;53.570;9.718;2023-11-18T01:02:43;6.80;1.00
11132;DHT22;5620;53.570;9.718;2023-11-18T01:05:09;6.80;1.00
11132;DHT22;5620;53.570;9.718;2023-11-18T01:07:37;6.90;1.00
11132;DHT22;5620;53.570;9.718;2023-11-18T01:10:05;7.00;1.00
11132;DHT22;5620;53.570;9.718;2023-11-18T01:12:32;7.00;1.00
11132;DHT22;5620;53.570;9.718;2023-11-18T01:14:59;7.00;1.00
11132;DHT22;5620;53.570;9.718;2023-11-18T01:17:26;7.10;1.00
11132;DHT22;5620;53.570;9.718;2023-11-18T01:19:51;7.10;1.00
11132;DHT22;5620;53.570;9.718;2023-11-18T01:22:17;7.10;1.00
11132;DHT22;5620;53.570;9.718;2023-11-18T01:24:42;7.10;1.00
11132;DHT22;5620;53.570;9.718;2023-11-18T01:27:08;7.00;1.00
11132;DHT22;5620;53.570;9.718;2023-11-18T01:29:33;6.90;1.00
11132;DHT22;5620;53.570;9.718;2023-11-18T01:32:00;6.70;1.00
11132;DHT22;5620;53.570;9.718;2023-11-18T01:34:26;6.60;1.00
11132;DHT22;5620;53.570;9.718;2023-11-18T01:36:52;6.40;1.00
11132;DHT22;5620;53.570;9.718;2023-11-18T01:39:18;6.30;1.00
11132;DHT22;5620;53.570;9.718;2023-11-18T01:41:44;6.20;1.00
11132;DHT22;5620;53.570;9.718;2023-11-18T01:44:11;6.20;1.00
11132;DHT22;5620;53.570;9.718;2023-11-18T01:46:39;6.10;1.00
11132;DHT22;5620;53.570;9.718;2023-11-18T01:49:08;6.10;1.00
11132;DHT22;5620;53.570;9.718;2023-11-18T01:51:35;6.00;1.00
11132;DHT22;5620;53.570;9.718;2023-11-18T01:54:00;5.90;1.00
11132;DHT22;5620;53.570;9.718;2023-11-18T01:56:28;5.70;1.00
11132;DHT22;5620;53.570;9.718;2023-11-18T01:58:55;5.60;1.00
11132;DHT22;5620;53.570;9.718;2023-11-18T02:01:23;5.50;1.00
11132;DHT22;5620;53.570;9.718;2023-11-18T02:03:49;5.40;1.00
11132;DHT22;5620;53.570;9.718;2023-11-18T02:06:16;5.40;1.00
11132;DHT22;5620;53.570;9.718;2023-11-18T02:08:43;5.40;1.00
11132;DHT22;5620;53.570;9.718;2023-11-18T02:14:14;5.40;1.00
11132;DHT22;5620;53.570;9.718;2023-11-18T02:16:42;5.30;1.00
11132;DHT22;5620;53.570;9.718;2023-11-18T02:19:24;5.20;1.00
11132;DHT22;5620;53.570;9.718;2023-11-18T02:21:52;5.20;1.00
11132;DHT22;5620;53.570;9.718;2023-11-18T02:24:32;5.20;1.00
11132;DHT22;5620;53.570;9.718;2023-11-18T02:27:00;5.30;1.00
11132;DHT22;5620;53.570;9.718;2023-11-18T02:29:37;5.30;1.00
11132;DHT22;5620;53.570;9.718;2023-11-18T02:32:31;5.30;1.00
11132;DHT22;5620;53.570;9.718;2023-11-18T02:35:40;5.30;1.00
11132;DHT22;5620;53.570;9.718;2023-11-18T02:38:04;5.30;1.00
11132;DHT22;5620;53.570;9.718;2023-11-18T02:40:36;5.30;1.00
11132;DHT22;5620;53.570;9.718;2023-11-18T02:43:04;5.20;1.00
11132;DHT22;5620;53.570;9.718;2023-11-18T02:45:34;5.10;1.00
11132;DHT22;5620;53.570;9.718;2023-11-18T02:48:00;5.10;1.00
11132;DHT22;5620;53.570;9.718;2023-11-18T02:50:26;5.00;1.00
11132;DHT22;5620;53.570;9.718;2023-11-18T02:52:54;5.00;1.00
11132;DHT22;5620;53.570;9.718;2023-11-18T02:55:19;5.00;2.60
11132;DHT22;5620;53.570;9.718;2023-11-18T02:57:46;5.00;47.10
11132;DHT22;5620;53.570;9.718;2023-11-18T03:00:12;5.10;76.80
11132;DHT22;5620;53.570;9.718;2023-11-18T03:02:38;5.20;78.70
11132;DHT22;5620;53.570;9.718;2023-11-18T03:05:06;5.30;78.20
11132;DHT22;5620;53.570;9.718;2023-11-18T03:07:32;5.30;72.40
11132;DHT22;5620;53.570;9.718;2023-11-18T03:09:59;5.30;41.10
11132;DHT22;5620;53.570;9.718;2023-11-18T03:12:24;5.40;38.70
11132;DHT22;5620;53.570;9.718;2023-11-18T03:14:50;5.30;20.10
11132;DHT22;5620;53.570;9.718;2023-11-18T03:17:16;5.30;24.20
11132;DHT22;5620;53.570;9.718;2023-11-18T03:19:43;5.30;68.40
11132;DHT22;5620;53.570;9.718;2023-11-18T03:22:08;5.40;86.20
11132;DHT22;5620;53.570;9.718;2023-11-18T03:24:35;5.50;87.00
11132;DHT22;5620;53.570;9.718;2023-11-18T03:27:00;5.50;80.30
11132;DHT22;5620;53.570;9.718;2023-11-18T03:29:27;5.60;62.40
11132;DHT22;5620;53.570;9.718;2023-11-18T03:31:53;5.60;44.70
11132;DHT22;5620;53.570;9.718;2023-11-18T03:34:19;5.60;42.80
11132;DHT22;5620;53.570;9.718;2023-11-18T03:36:47;5.70;49.90
11132;DHT22;5620;53.570;9.718;2023-11-18T03:39:13;5.70;31.40
11132;DHT22;5620;53.570;9.718;2023-11-18T03:41:39;5.60;19.30
11132;DHT22;5620;53.570;9.718;2023-11-18T03:44:05;5.60;1.00
11132;DHT22;5620;53.570;9.718;2023-11-18T03:46:30;5.50;1.00
11132;DHT22;5620;53.570;9.718;2023-11-18T03:48:57;5.30;1.00
11132;DHT22;5620;53.570;9.718;2023-11-18T03:51:23;5.10;1.00
11132;DHT22;5620;53.570;9.718;2023-11-18T03:53:50;4.90;1.00
11132;DHT22;5620;53.570;9.718;2023-11-18T03:56:18;4.80;1.00
11132;DHT22;5620;53.570;9.718;2023-11-18T03:58:44;4.60;3.40
11132;DHT22;5620;53.570;9.718;2023-11-18T04:01:12;4.50;18.50
11132;DHT22;5620;53.570;9.718;2023-11-18T04:03:44;4.30;43.30
11132;DHT22;5620;53.570;9.718;2023-11-18T04:06:10;4.20;73.30
11132;DHT22;5620;53.570;9.718;2023-11-18T04:08:36;4.10;91.30
11132;DHT22;5620;53.570;9.718;2023-11-18T04:11:03;4.00;99.00
11132;DHT22;5620;53.570;9.718;2023-11-18T04:13:28;3.90;99.90
11132;DHT22;5620;53.570;9.718;2023-11-18T04:15:57;3.90;99.90
11132;DHT22;5620;53.570;9.718;2023-11-18T04:18:22;3.80;99.90
11132;DHT22;5620;53.570;9.718;2023-11-18T04:20:49;3.70;99.90
11132;DHT22;5620;53.570;9.718;2023-11-18T04:23:15;3.70;99.90
11132;DHT22;5620;53.570;9.718;2023-11-18T04:25:43;3.60;99.90
11132;DHT22;5620;53.570;9.718;2023-11-18T04:28:09;3.50;99.90
11132;DHT22;5620;53.570;9.718;2023-11-18T04:30:35;3.40;99.90
11132;DHT22;5620;53.570;9.718;2023-11-18T04:33:01;3.40;99.90
11132;DHT22;5620;53.570;9.718;2023-11-18T04:35:27;3.30;99.90
11132;DHT22;5620;53.570;9.718;2023-11-18T04:37:53;3.30;99.90
11132;DHT22;5620;53.570;9.718;2023-11-18T04:40:19;3.30;99.90
11132;DHT22;5620;53.570;9.718;2023-11-18T04:42:45;3.30;99.90
11132;DHT22;5620;53.570;9.718;2023-11-18T04:45:11;3.30;99.90
11132;DHT22;5620;53.570;9.718;2023-11-18T04:47:37;3.40;1.00
11132;DHT22;5620;53.570;9.718;2023-11-18T04:50:03;3.50;1.00
11132;DHT22;5620;53.570;9.718;2023-11-18T04:52:29;3.60;1.00
11132;DHT22;5620;53.570;9.718;2023-11-18T04:54:55;3.70;1.00
11132;DHT22;5620;53.570;9.718;2023-11-18T04:57:21;3.70;1.00
11132;DHT22;5620;53.570;9.718;2023-11-18T04:59:48;3.70;1.00
11132;DHT22;5620;53.570;9.718;2023-11-18T05:02:15;3.80;1.00
11132;DHT22;5620;53.570;9.718;2023-11-18T05:04:40;3.80;1.00
11132;DHT22;5620;53.570;9.718;2023-11-18T05:07:07;3.80;99.90
11132;DHT22;5620;53.570;9.718;2023-11-18T05:09:34;3.80;99.90
11132;DHT22;5620;53.570;9.718;2023-11-18T05:12:01;3.70;99.90
11132;DHT22;5620;53.570;9.718;2023-11-18T05:14:28;3.60;1.00
11132;DHT22;5620;53.570;9.718;2023-11-18T05:16:54;3.60;1.00
11132;DHT22;5620;53.570;9.718;2023-11-18T05:19:21;3.60;1.00
11132;DHT22;5620;53.570;9.718;2023-11-18T05:21:47;3.70;1.00
11132;DHT22;5620;53.570;9.718;2023-11-18T05:24:14;3.70;1.00
11132;DHT22;5620;53.570;9.718;2023-11-18T05:26:41;3.70;1.00
11132;DHT22;5620;53.570;9.718;2023-11-18T05:29:07;3.70;1.00
11132;DHT22;5620;53.570;9.718;2023-11-18T05:31:35;3.60;1.00
11132;DHT22;5620;53.570;9.718;2023-11-18T05:34:01;3.60;1.00
11132;DHT22;5620;53.570;9.718;2023-11-18T05:36:28;3.60;1.00
11132;DHT22;5620;53.570;9.718;2023-11-18T05:38:55;3.70;1.00
11132;DHT22;5620;53.570;9.718;2023-11-18T05:41:21;3.70;1.00
11132;DHT22;5620;53.570;9.718;2023-11-18T05:43:47;3.70;1.00
11132;DHT22;5620;53.570;9.718;2023-11-18T05:46:14;3.70;1.00
11132;DHT22;5620;53.570;9.718;2023-11-18T05:48:42;3.70;1.00
11132;DHT22;5620;53.570;9.718;2023-11-18T05:51:09;3.80;1.00
11132;DHT22;5620;53.570;9.718;2023-11-18T05:53:40;3.80;1.00
11132;DHT22;5620;53.570;9.718;2023-11-18T05:56:07;3.80;1.00
11132;DHT22;5620;53.570;9.718;2023-11-18T05:58:34;3.80;1.00
11132;DHT22;5620;53.570;9.718;2023-11-18T06:01:01;3.90;1.00
11132;DHT22;5620;53.570;9.718;2023-11-18T06:03:28;3.90;1.00
11132;DHT22;5620;53.570;9.718;2023-11-18T06:05:54;4.00;1.00
11132;DHT22;5620;53.570;9.718;2023-11-18T06:08:21;4.00;1.00
11132;DHT22;5620;53.570;9.718;2023-11-18T06:10:48;4.00;1.00
11132;DHT22;5620;53.570;9.718;2023-11-18T06:13:15;4.10;1.00
11132;DHT22;5620;53.570;9.718;2023-11-18T06:15:42;4.20;1.00
11132;DHT22;5620;53.570;9.718;2023-11-18T06:18:09;4.20;1.00
11132;DHT22;5620;53.570;9.718;2023-11-18T06:20:36;4.10;1.00
11132;DHT22;5620;53.570;9.718;2023-11-18T06:23:03;4.00;1.00
11132;DHT22;5620;53.570;9.718;2023-11-18T06:25:30;3.90;1.00
11132;DHT22;5620;53.570;9.718;2023-11-18T06:27:56;3.90;1.00
11132;DHT22;5620;53.570;9.718;2023-11-18T06:30:23;3.80;1.00
11132;DHT22;5620;53.570;9.718;2023-11-18T06:32:50;3.70;1.00
11132;DHT22;5620;53.570;9.718;2023-11-18T06:35:17;3.70;1.00
11132;DHT22;5620;53.570;9.718;2023-11-18T06:37:44;3.60;1.00
11132;DHT22;5620;53.570;9.718;2023-11-18T06:40:10;3.60;1.00
11132;DHT22;5620;53.570;9.718;2023-11-18T06:42:36;3.50;1.00
11132;DHT22;5620;53.570;9.718;2023-11-18T06:45:03;3.50;1.00
11132;DHT22;5620;53.570;9.718;2023-11-18T06:47:30;3.50;1.00
11132;DHT22;5620;53.570;9.718;2023-11-18T06:49:57;3.40;1.00
11132;DHT22;5620;53.570;9.718;2023-11-18T06:52:23;3.40;1.00
11132;DHT22;5620;53.570;9.718;2023-11-18T06:54:50;3.40;1.00
11132;DHT22;5620;53.570;9.718;2023-11-18T06:57:17;3.30;1.00
11132;DHT22;5620;53.570;9.718;2023-11-18T06:59:44;3.30;1.00
11132;DHT22;5620;53.570;9.718;2023-11-18T07:02:10;3.30;1.00
11132;DHT22;5620;53.570;9.718;2023-11-18T07:04:37;3.30;1.00
11132;DHT22;5620;53.570;9.718;2023-11-18T07:07:04;3.40;1.00
11132;DHT22;5620;53.570;9.718;2023-11-18T07:09:31;3.40;1.00
11132;DHT22;5620;53.570;9.718;2023-11-18T07:11:58;3.50;1.00
11132;DHT22;5620;53.570;9.718;2023-11-18T07:14:24;3.50;1.00
11132;DHT22;5620;53.570;9.718;2023-11-18T07:16:51;3.60;1.00
11132;DHT22;5620;53.570;9.718;2023-11-18T07:19:18;3.60;1.00
11132;DHT22;5620;53.570;9.718;2023-11-18T07:21:45;3.70;1.00
11132;DHT22;5620;53.570;9.718;2023-11-18T07:24:12;3.70;1.00
11132;DHT22;5620;53.570;9.718;2023-11-18T07:26:39;3.80;1.00
11132;DHT22;5620;53.570;9.718;2023-11-18T07:29:05;3.80;1.00
11132;DHT22;5620;53.570;9.718;2023-11-18T07:31:33;3.90;1.00
11132;DHT22;5620;53.570;9.718;2023-11-18T07:34:00;4.00;1.00
11132;DHT22;5620;53.570;9.718;2023-11-18T07:36:28;4.10;27.40
11132;DHT22;5620;53.570;9.718;2023-11-18T07:38:54;4.20;48.20
11132;DHT22;5620;53.570;9.718;2023-11-18T07:41:21;4.40;60.20
11132;DHT22;5620;53.570;9.718;2023-11-18T07:43:48;4.50;13.50
11132;DHT22;5620;53.570;9.718;2023-11-18T07:46:17;4.70;1.00
11132;DHT22;5620;53.570;9.718;2023-11-18T07:48:44;4.80;1.00
11132;DHT22;5620;53.570;9.718;2023-11-18T07:51:10;4.90;1.00
11132;DHT22;5620;53.570;9.718;2023-11-18T07:53:38;5.00;1.00
11132;DHT22;5620;53.570;9.718;2023-11-18T07:56:05;5.10;1.00
11132;DHT22;5620;53.570;9.718;2023-11-18T07:58:32;5.20;1.00
11132;DHT22;5620;53.570;9.718;2023-11-18T08:00:59;5.30;1.00
11132;DHT22;5620;53.570;9.718;2023-11-18T08:03:26;5.50;1.00
11132;DHT22;5620;53.570;9.718;2023-11-18T08:05:53;5.60;1.00
11132;DHT22;5620;53.570;9.718;2023-11-18T08:08:20;5.70;1.00
11132;DHT22;5620;53.570;9.718;2023-11-18T08:10:46;5.90;1.00
11132;DHT22;5620;53.570;9.718;2023-11-18T08:13:13;6.00;1.00
11132;DHT22;5620;53.570;9.718;2023-11-18T08:15:42;6.20;1.00
11132;DHT22;5620;53.570;9.718;2023-11-18T08:18:09;6.30;1.00
11132;DHT22;5620;53.570;9.718;2023-11-18T08:20:35;6.40;1.00
11132;DHT22;5620;53.570;9.718;2023-11-18T08:23:02;6.50;1.00
11132;DHT22;5620;53.570;9.718;2023-11-18T08:25:29;6.50;1.00
11132;DHT22;5620;53.570;9.718;2023-11-18T08:27:56;6.50;1.00
11132;DHT22;5620;53.570;9.718;2023-11-18T08:30:23;6.50;1.00
11132;DHT22;5620;53.570;9.718;2023-11-18T08:32:50;6.60;1.00
11132;DHT22;5620;53.570;9.718;2023-11-18T08:35:16;6.60;1.00
11132;DHT22;5620;53.570;9.718;2023-11-18T08:37:42;6.50;1.00
11132;DHT22;5620;53.570;9.718;2023-11-18T08:40:10;6.50;99.90
11132;DHT22;5620;53.570;9.718;2023-11-18T08:42:37;6.50;99.90
11132;DHT22;5620;53.570;9.718;2023-11-18T08:45:03;6.50;99.90
11132;DHT22;5620;53.570;9.718;2023-11-18T08:47:29;6.60;99.90
11132;DHT22;5620;53.570;9.718;2023-11-18T08:49:55;6.60;99.90
11132;DHT22;5620;53.570;9.718;2023-11-18T08:52:21;6.60;99.90
11132;DHT22;5620;53.570;9.718;2023-11-18T08:54:49;6.70;99.90
11132;DHT22;5620;53.570;9.718;2023-11-18T08:57:16;6.80;99.90
11132;DHT22;5620;53.570;9.718;2023-11-18T08:59:43;6.90;99.90
11132;DHT22;5620;53.570;9.718;2023-11-18T09:02:09;7.00;99.90
11132;DHT22;5620;53.570;9.718;2023-11-18T09:04:36;7.10;99.90
11132;DHT22;5620;53.570;9.718;2023-11-18T09:07:03;7.20;99.90
11132;DHT22;5620;53.570;9.718;2023-11-18T09:09:29;7.30;99.90
11132;DHT22;5620;53.570;9.718;2023-11-18T09:11:57;7.40;99.90
11132;DHT22;5620;53.570;9.718;2023-11-18T09:14:25;7.50;99.90
11132;DHT22;5620;53.570;9.718;2023-11-18T09:16:53;7.60;99.90
11132;DHT22;5620;53.570;9.718;2023-11-18T09:19:21;7.60;99.90
11132;DHT22;5620;53.570;9.718;2023-11-18T09:21:48;7.80;99.90
11132;DHT22;5620;53.570;9.718;2023-11-18T09:24:15;7.90;99.90
11132;DHT22;5620;53.570;9.718;2023-11-18T09:26:42;8.00;99.90
11132;DHT22;5620;53.570;9.718;2023-11-18T09:29:08;8.10;99.90
11132;DHT22;5620;53.570;9.718;2023-11-18T09:31:35;8.30;99.90
11132;DHT22;5620;53.570;9.718;2023-11-18T09:34:02;8.30;99.90
11132;DHT22;5620;53.570;9.718;2023-11-18T09:36:29;8.30;99.90
11132;DHT22;5620;53.570;9.718;2023-11-18T09:38:56;8.40;99.90
11132;DHT22;5620;53.570;9.718;2023-11-18T09:41:23;8.70;99.90
11132;DHT22;5620;53.570;9.718;2023-11-18T09:43:50;8.90;99.90
11132;DHT22;5620;53.570;9.718;2023-11-18T09:46:23;9.00;66.40
11132;DHT22;5620;53.570;9.718;2023-11-18T09:51:50;9.10;1.00
11132;DHT22;5620;53.570;9.718;2023-11-18T09:57:58;9.20;1.00
11132;DHT22;5620;53.570;9.718;2023-11-18T10:00:08;9.30;1.00
11132;DHT22;5620;53.570;9.718;2023-11-18T10:02:39;9.30;1.00
11132;DHT22;5620;53.570;9.718;2023-11-18T10:05:09;9.30;1.00
11132;DHT22;5620;53.570;9.718;2023-11-18T10:07:41;9.30;1.00
11132;DHT22;5620;53.570;9.718;2023-11-18T10:10:08;9.30;1.00
11132;DHT22;5620;53.570;9.718;2023-11-18T10:12:35;9.40;1.00
11132;DHT22;5620;53.570;9.718;2023-11-18T10:15:00;9.40;1.00
11132;DHT22;5620;53.570;9.718;2023-11-18T10:17:26;9.50;1.00
11132;DHT22;5620;53.570;9.718;2023-11-18T10:19:55;9.60;1.00
11132;DHT22;5620;53.570;9.718;2023-11-18T10:22:22;9.70;1.00
11132;DHT22;5620;53.570;9.718;2023-11-18T10:24:49;9.70;1.00
11132;DHT22;5620;53.570;9.718;2023-11-18T10:27:15;9.70;1.00
11132;DHT22;5620;53.570;9.718;2023-11-18T10:29:41;9.80;1.00
11132;DHT22;5620;53.570;9.718;2023-11-18T10:32:08;9.80;1.00
11132;DHT22;5620;53.570;9.718;2023-11-18T10:34:36;9.90;1.00
11132;DHT22;5620;53.570;9.718;2023-11-18T10:37:05;10.20;1.00
11132;DHT22;5620;53.570;9.718;2023-11-18T10:39:31;10.50;99.90
11132;DHT22;5620;53.570;9.718;2023-11-18T10:42:02;10.90;99.90
11132;DHT22;5620;53.570;9.718;2023-11-18T10:44:28;11.30;99.90
11132;DHT22;5620;53.570;9.718;2023-11-18T10:46:55;11.80;99.90
11132;DHT22;5620;53.570;9.718;2023-11-18T10:49:21;12.20;99.90
11132;DHT22;5620;53.570;9.718;2023-11-18T10:51:51;12.60;99.90
11132;DHT22;5620;53.570;9.718;2023-11-18T10:54:16;13.10;99.90
11132;DHT22;5620;53.570;9.718;2023-11-18T10:56:51;13.70;99.90
11132;DHT22;5620;53.570;9.718;2023-11-18T10:59:18;14.30;99.90
11132;DHT22;5620;53.570;9.718;2023-11-18T11:01:49;14.90;86.30
11132;DHT22;5620;53.570;9.718;2023-11-18T11:04:17;15.10;11.20
11132;DHT22;5620;53.570;9.718;2023-11-18T11:06:51;15.10;1.00
11132;DHT22;5620;53.570;9.718;2023-11-18T11:09:26;14.50;1.00
11132;DHT22;5620;53.570;9.718;2023-11-18T11:12:10;14.00;1.00
11132;DHT22;5620;53.570;9.718;2023-11-18T11:15:08;13.70;1.00
11132;DHT22;5620;53.570;9.718;2023-11-18T11:17:31;13.50;1.00
11132;DHT22;5620;53.570;9.718;2023-11-18T11:20:19;13.30;1.00
11132;DHT22;5620;53.570;9.718;2023-11-18T11:29:02;13.10;1.00
11132;DHT22;5620;53.570;9.718;2023-11-18T11:32:30;13.60;1.00
11132;DHT22;5620;53.570;9.718;2023-11-18T11:34:54;14.30;1.00
11132;DHT22;5620;53.570;9.718;2023-11-18T11:37:25;14.70;1.00
11132;DHT22;5620;53.570;9.718;2023-11-18T11:39:51;14.70;99.90
11132;DHT22;5620;53.570;9.718;2023-11-18T11:42:19;14.60;99.90
11132;DHT22;5620;53.570;9.718;2023-11-18T11:44:46;14.50;99.90
11132;DHT22;5620;53.570;9.718;2023-11-18T11:47:12;14.30;99.90
11132;DHT22;5620;53.570;9.718;2023-11-18T11:49:47;14.00;99.90
11132;DHT22;5620;53.570;9.718;2023-11-18T11:52:23;13.80;99.90
11132;DHT22;5620;53.570;9.718;2023-11-18T11:55:56;13.40;99.90
11132;DHT22;5620;53.570;9.718;2023-11-18T11:57:58;13.00;99.90
11132;DHT22;5620;53.570;9.718;2023-11-18T12:00:24;12.60;99.90
11132;DHT22;5620;53.570;9.718;2023-11-18T12:02:53;12.30;99.90
11132;DHT22;5620;53.570;9.718;2023-11-18T12:05:20;12.10;99.90
11132;DHT22;5620;53.570;9.718;2023-11-18T12:07:47;11.90;99.90
11132;DHT22;5620;53.570;9.718;2023-11-18T12:10:14;11.80;99.90
11132;DHT22;5620;53.570;9.718;2023-11-18T12:12:41;11.70;99.90
11132;DHT22;5620;53.570;9.718;2023-11-18T12:15:08;11.60;99.90
11132;DHT22;5620;53.570;9.718;2023-11-18T12:20:46;11.30;99.90
11132;DHT22;5620;53.570;9.718;2023-11-18T12:23:14;11.30;99.90
11132;DHT22;5620;53.570;9.718;2023-11-18T12:25:43;11.20;99.90
11132;DHT22;5620;53.570;9.718;2023-11-18T12:28:13;11.00;99.90
11132;DHT22;5620;53.570;9.718;2023-11-18T12:30:44;10.90;99.90
11132;DHT22;5620;53.570;9.718;2023-11-18T12:33:11;10.80;99.90
11132;DHT22;5620;53.570;9.718;2023-11-18T12:41:40;10.40;99.90
11132;DHT22;5620;53.570;9.718;2023-11-18T12:47:02;10.30;99.90
11132;DHT22;5620;53.570;9.718;2023-11-18T12:49:28;10.30;99.90
11132;DHT22;5620;53.570;9.718;2023-11-18T12:51:56;10.30;99.90
11132;DHT22;5620;53.570;9.718;2023-11-18T12:54:23;10.20;99.90
11132;DHT22;5620;53.570;9.718;2023-11-18T12:56:52;10.10;99.90
11132;DHT22;5620;53.570;9.718;2023-11-18T12:59:19;10.00;99.90
11132;DHT22;5620;53.570;9.718;2023-11-18T13:01:50;9.90;99.90
11132;DHT22;5620;53.570;9.718;2023-11-18T13:04:17;9.90;99.90
11132;DHT22;5620;53.570;9.718;2023-11-18T13:06:44;9.80;99.90
11132;DHT22;5620;53.570;9.718;2023-11-18T13:09:11;9.80;99.90
11132;DHT22;5620;53.570;9.718;2023-11-18T13:11:38;9.80;99.90
11132;DHT22;5620;53.570;9.718;2023-11-18T13:14:05;9.70;99.90
11132;DHT22;5620;53.570;9.718;2023-11-18T13:16:33;9.70;99.90
11132;DHT22;5620;53.570;9.718;2023-11-18T13:19:01;9.60;99.90
11132;DHT22;5620;53.570;9.718;2023-11-18T13:21:28;9.60;99.90
11132;DHT22;5620;53.570;9.718;2023-11-18T13:23:55;9.60;99.90
11132;DHT22;5620;53.570;9.718;2023-11-18T13:26:22;9.50;99.90
11132;DHT22;5620;53.570;9.718;2023-11-18T13:28:49;9.40;99.90
11132;DHT22;5620;53.570;9.718;2023-11-18T13:31:17;9.40;99.90
11132;DHT22;5620;53.570;9.718;2023-11-18T13:33:46;9.40;99.90
11132;DHT22;5620;53.570;9.718;2023-11-18T13:36:16;9.30;99.90
11132;DHT22;5620;53.570;9.718;2023-11-18T13:38:43;9.30;99.90
11132;DHT22;5620;53.570;9.718;2023-11-18T13:41:11;9.30;99.90
11132;DHT22;5620;53.570;9.718;2023-11-18T13:43:46;9.30;99.90
11132;DHT22;5620;53.570;9.718;2023-11-18T13:46:14;9.20;99.90
11132;DHT22;5620;53.570;9.718;2023-11-18T13:48:41;9.10;99.90
11132;DHT22;5620;53.570;9.718;2023-11-18T13:51:11;9.00;99.90
11132;DHT22;5620;53.570;9.718;2023-11-18T13:53:40;9.00;99.90
11132;DHT22;5620;53.570;9.718;2023-11-18T13:56:08;8.90;99.90
11132;DHT22;5620;53.570;9.718;2023-11-18T13:58:36;8.80;99.90
11132;DHT22;5620;53.570;9.718;2023-11-18T14:01:05;8.80;99.90
11132;DHT22;5620;53.570;9.718;2023-11-18T14:03:30;8.70;99.90
11132;DHT22;5620;53.570;9.718;2023-11-18T14:05:59;8.60;99.90
11132;DHT22;5620;53.570;9.718;2023-11-18T14:08:25;8.60;99.90
11132;DHT22;5620;53.570;9.718;2023-11-18T14:10:52;8.60;99.90
11132;DHT22;5620;53.570;9.718;2023-11-18T14:13:19;8.50;99.90
11132;DHT22;5620;53.570;9.718;2023-11-18T14:15:45;8.40;99.90
11132;DHT22;5620;53.570;9.718;2023-11-18T14:18:12;8.50;99.90
11132;DHT22;5620;53.570;9.718;2023-11-18T14:20:39;8.40;99.90
11132;DHT22;5620;53.570;9.718;2023-11-18T14:23:06;8.40;99.90
11132;DHT22;5620;53.570;9.718;2023-11-18T14:25:32;8.30;99.90
11132;DHT22;5620;53.570;9.718;2023-11-18T14:28:00;8.20;99.90
11132;DHT22;5620;53.570;9.718;2023-11-18T14:30:27;8.20;99.90
11132;DHT22;5620;53.570;9.718;2023-11-18T14:32:53;8.10;99.90
11132;DHT22;5620;53.570;9.718;2023-11-18T14:35:20;8.10;99.90
11132;DHT22;5620;53.570;9.718;2023-11-18T14:37:47;8.10;99.90
11132;DHT22;5620;53.570;9.718;2023-11-18T14:40:15;8.10;99.90
11132;DHT22;5620;53.570;9.718;2023-11-18T14:42:43;8.00;99.90
11132;DHT22;5620;53.570;9.718;2023-11-18T14:45:11;8.00;99.90
11132;DHT22;5620;53.570;9.718;2023-11-18T14:47:40;8.00;99.90
11132;DHT22;5620;53.570;9.718;2023-11-18T14:50:07;7.90;99.90
11132;DHT22;5620;53.570;9.718;2023-11-18T14:52:34;7.90;99.90
11132;DHT22;5620;53.570;9.718;2023-11-18T14:55:01;7.90;99.90
11132;DHT22;5620;53.570;9.718;2023-11-18T14:57:28;7.80;99.90
11132;DHT22;5620;53.570;9.718;2023-11-18T14:59:54;7.80;99.90
11132;DHT22;5620;53.570;9.718;2023-11-18T15:02:21;7.80;99.90
11132;DHT22;5620;53.570;9.718;2023-11-18T15:04:49;7.80;99.90
11132;DHT22;5620;53.570;9.718;2023-11-18T15:07:17;7.80;99.90
11132;DHT22;5620;53.570;9.718;2023-11-18T15:09:43;7.80;1.00
11132;DHT22;5620;53.570;9.718;2023-11-18T15:12:09;7.80;1.00
11132;DHT22;5620;53.570;9.718;2023-11-18T15:14:35;7.80;1.00
11132;DHT22;5620;53.570;9.718;2023-11-18T15:17:00;7.80;1.00
11132;DHT22;5620;53.570;9.718;2023-11-18T15:19:26;7.80;1.00
11132;DHT22;5620;53.570;9.718;2023-11-18T15:21:53;7.80;1.00
11132;DHT22;5620;53.570;9.718;2023-11-18T15:24:18;7.80;1.00
11132;DHT22;5620;53.570;9.718;2023-11-18T15:26:44;7.80;1.00
11132;DHT22;5620;53.570;9.718;2023-11-18T15:29:09;7.70;1.00
11132;DHT22;5620;53.570;9.718;2023-11-18T15:31:35;7.80;1.00
11132;DHT22;5620;53.570;9.718;2023-11-18T15:34:02;7.80;1.00
11132;DHT22;5620;53.570;9.718;2023-11-18T15:36:28;7.70;1.00
11132;DHT22;5620;53.570;9.718;2023-11-18T15:38:55;7.70;1.00
11132;DHT22;5620;53.570;9.718;2023-11-18T15:41:21;7.80;1.00
11132;DHT22;5620;53.570;9.718;2023-11-18T15:43:46;7.80;1.00
11132;DHT22;5620;53.570;9.718;2023-11-18T15:46:12;7.80;1.00
11132;DHT22;5620;53.570;9.718;2023-11-18T15:48:37;7.80;1.00
11132;DHT22;5620;53.570;9.718;2023-11-18T15:51:03;7.80;1.00
11132;DHT22;5620;53.570;9.718;2023-11-18T15:53:30;7.80;1.00
11132;DHT22;5620;53.570;9.718;2023-11-18T15:55:58;7.80;1.00
11132;DHT22;5620;53.570;9.718;2023-11-18T15:58:24;7.80;1.00
11132;DHT22;5620;53.570;9.718;2023-11-18T16:00:51;7.80;1.00
11132;DHT22;5620;53.570;9.718;2023-11-18T16:03:18;7.80;1.00
11132;DHT22;5620;53.570;9.718;2023-11-18T16:05:43;7.80;1.00
11132;DHT22;5620;53.570;9.718;2023-11-18T16:08:10;7.80;1.00
11132;DHT22;5620;53.570;9.718;2023-11-18T16:10:37;7.80;1.00
11132;DHT22;5620;53.570;9.718;2023-11-18T16:13:03;7.80;1.00
11132;DHT22;5620;53.570;9.718;2023-11-18T16:15:30;7.80;1.00
11132;DHT22;5620;53.570;9.718;2023-11-18T16:17:59;7.80;1.00
11132;DHT22;5620;53.570;9.718;2023-11-18T16:20:27;7.90;1.00
11132;DHT22;5620;53.570;9.718;2023-11-18T16:22:55;7.90;1.00
11132;DHT22;5620;53.570;9.718;2023-11-18T16:25:23;7.90;1.00
11132;DHT22;5620;53.570;9.718;2023-11-18T16:27:51;7.80;1.00
11132;DHT22;5620;53.570;9.718;2023-11-18T16:30:18;7.80;1.00
11132;DHT22;5620;53.570;9.718;2023-11-18T16:32:45;7.70;1.00
11132;DHT22;5620;53.570;9.718;2023-11-18T16:35:10;7.70;1.00
11132;DHT22;5620;53.570;9.718;2023-11-18T16:37:36;7.60;1.00
11132;DHT22;5620;53.570;9.718;2023-11-18T16:40:03;7.60;1.00